sensor_id;sensor_type;location;lat;lon;timestamp;pressure;altitude;pressure_sealevel;temperature;humidity
16595;BME280;8410;52.532;13.336;2023-07-31T00:00:47;100647.28;;;18.87;86.58
16595;BME280;8410;52.532;13.336;2023-07-31T00:03:16;100637.91;;;18.79;87.66
16595;BME280;8410;52.532;13.336;2023-07-31T00:05:43;100635.28;;;18.79;86.33
16595;BME280;8410;52.532;13.336;2023-07-31T00:08:11;100634.25;;;18.86;85.96
16595;BME280;8410;52.532;13.336;2023-07-31T00:10:38;100635.00;;;18.92;85.29
16595;BME280;8410;52.532;13.336;2023-07-31T00:13:06;100628.97;;;18.89;85.06
16595;BME280;8410;52.532;13.336;2023-07-31T00:15:33;100636.25;;;18.75;86.18
16595;BME280;8410;52.532;13.336;2023-07-31T00:18:01;100632.66;;;18.80;85.62
16595;BME280;8410;52.532;13.336;2023-07-31T00:20:30;100628.38;;;18.76;86.27
16595;BME280;8410;52.532;13.336;2023-07-31T00:22:57;100631.88;;;18.77;86.14
16595;BME280;8410;52.532;13.336;2023-07-31T00:25:24;100620.38;;;18.84;86.40
16595;BME280;8410;52.532;13.336;2023-07-31T00:27:51;100618.75;;;18.80;86.56
16595;BME280;8410;52.532;13.336;2023-07-31T00:30:19;100609.00;;;18.49;87.99
16595;BME280;8410;52.532;13.336;2023-07-31T00:32:46;100605.44;;;18.53;89.17
16595;BME280;8410;52.532;13.336;2023-07-31T00:35:14;100601.47;;;18.76;88.83
16595;BME280;8410;52.532;13.336;2023-07-31T00:37:43;100608.34;;;18.80;87.56
16595;BME280;8410;52.532;13.336;2023-07-31T00:40:10;100617.06;;;19.14;86.81
16595;BME280;8410;52.532;13.336;2023-07-31T00:42:38;100599.63;;;19.15;86.47
16595;BME280;8410;52.532;13.336;2023-07-31T00:45:05;100602.03;;;18.88;87.74
16595;BME280;8410;52.532;13.336;2023-07-31T00:47:33;100600.50;;;19.15;87.28
16595;BME280;8410;52.532;13.336;2023-07-31T00:50:01;100600.56;;;19.12;87.54
16595;BME280;8410;52.532;13.336;2023-07-31T00:52:28;100601.13;;;19.25;86.07
16595;BME280;8410;52.532;13.336;2023-07-31T00:54:57;100596.28;;;19.44;85.69
16595;BME280;8410;52.532;13.336;2023-07-31T00:57:24;100601.53;;;19.08;86.77
16595;BME280;8410;52.532;13.336;2023-07-31T00:59:52;100594.41;;;19.49;86.27
16595;BME280;8410;52.532;13.336;2023-07-31T01:02:19;100591.78;;;19.49;86.18
16595;BME280;8410;52.532;13.336;2023-07-31T01:04:47;100584.75;;;19.18;86.68
16595;BME280;8410;52.532;13.336;2023-07-31T01:07:21;100584.44;;;19.31;87.16
16595;BME280;8410;52.532;13.336;2023-07-31T01:10:00;100586.22;;;19.29;86.49
16595;BME280;8410;52.532;13.336;2023-07-31T01:12:31;100586.38;;;19.57;86.47
16595;BME280;8410;52.532;13.336;2023-07-31T01:15:03;100586.88;;;19.37;86.69
16595;BME280;8410;52.532;13.336;2023-07-31T01:17:31;100581.94;;;19.26;87.11
16595;BME280;8410;52.532;13.336;2023-07-31T01:20:01;100588.41;;;18.77;88.53
16595;BME280;8410;52.532;13.336;2023-07-31T01:22:54;100586.47;;;19.20;88.03
16595;BME280;8410;52.532;13.336;2023-07-31T01:25:59;100584.63;;;19.56;86.39
16595;BME280;8410;52.532;13.336;2023-07-31T01:28:33;100585.06;;;19.41;86.24
16595;BME280;8410;52.532;13.336;2023-07-31T01:31:07;100585.19;;;19.36;87.05
16595;BME280;8410;52.532;13.336;2023-07-31T01:33:36;100590.22;;;19.09;88.40
16595;BME280;8410;52.532;13.336;2023-07-31T01:36:04;100588.16;;;19.22;89.08
16595;BME280;8410;52.532;13.336;2023-07-31T01:38:33;100582.41;;;19.42;87.87
16595;BME280;8410;52.532;13.336;2023-07-31T01:41:01;100577.75;;;19.21;88.59
16595;BME280;8410;52.532;13.336;2023-07-31T01:43:29;100575.69;;;19.33;87.18
16595;BME280;8410;52.532;13.336;2023-07-31T01:45:57;100574.09;;;19.28;88.08
16595;BME280;8410;52.532;13.336;2023-07-31T01:48:24;100563.00;;;19.20;88.12
16595;BME280;8410;52.532;13.336;2023-07-31T01:50:52;100567.13;;;19.27;87.26
16595;BME280;8410;52.532;13.336;2023-07-31T01:53:19;100556.47;;;19.36;87.50
16595;BME280;8410;52.532;13.336;2023-07-31T01:55:47;100561.91;;;19.27;87.22
16595;BME280;8410;52.532;13.336;2023-07-31T01:58:15;100562.72;;;19.30;86.52
16595;BME280;8410;52.532;13.336;2023-07-31T02:00:43;100559.31;;;19.27;87.56
16595;BME280;8410;52.532;13.336;2023-07-31T02:03:10;100550.16;;;19.43;87.61
16595;BME280;8410;52.532;13.336;2023-07-31T02:05:44;100549.38;;;19.41;86.24
16595;BME280;8410;52.532;13.336;2023-07-31T02:08:11;100554.88;;;19.30;86.25
16595;BME280;8410;52.532;13.336;2023-07-31T02:10:39;100548.13;;;19.54;86.18
16595;BME280;8410;52.532;13.336;2023-07-31T02:13:06;100545.75;;;19.45;87.02
16595;BME280;8410;52.532;13.336;2023-07-31T02:15:36;100547.56;;;19.43;87.02
16595;BME280;8410;52.532;13.336;2023-07-31T02:18:04;100543.88;;;18.85;90.14
16595;BME280;8410;52.532;13.336;2023-07-31T02:20:33;100545.59;;;19.20;87.76
16595;BME280;8410;52.532;13.336;2023-07-31T02:23:01;100544.94;;;19.10;88.92
16595;BME280;8410;52.532;13.336;2023-07-31T02:25:29;100536.53;;;19.33;87.91
16595;BME280;8410;52.532;13.336;2023-07-31T02:27:56;100540.38;;;19.18;88.26
16595;BME280;8410;52.532;13.336;2023-07-31T02:30:24;100536.00;;;19.19;88.97
16595;BME280;8410;52.532;13.336;2023-07-31T02:32:53;100538.88;;;19.43;87.84
16595;BME280;8410;52.532;13.336;2023-07-31T02:35:20;100535.41;;;19.42;87.32
16595;BME280;8410;52.532;13.336;2023-07-31T02:37:48;100536.81;;;19.23;88.10
16595;BME280;8410;52.532;13.336;2023-07-31T02:40:15;100535.06;;;19.23;89.02
16595;BME280;8410;52.532;13.336;2023-07-31T02:42:43;100528.13;;;19.22;88.38
16595;BME280;8410;52.532;13.336;2023-07-31T02:45:10;100524.16;;;19.07;89.64
16595;BME280;8410;52.532;13.336;2023-07-31T02:47:38;100519.94;;;19.36;88.75
16595;BME280;8410;52.532;13.336;2023-07-31T02:50:07;100522.34;;;19.44;87.31
16595;BME280;8410;52.532;13.336;2023-07-31T02:52:35;100510.59;;;19.27;88.42
16595;BME280;8410;52.532;13.336;2023-07-31T02:55:03;100513.63;;;19.10;87.99
16595;BME280;8410;52.532;13.336;2023-07-31T02:57:30;100520.94;;;18.24;93.58
16595;BME280;8410;52.532;13.336;2023-07-31T02:59:58;100519.75;;;18.77;91.97
16595;BME280;8410;52.532;13.336;2023-07-31T03:02:25;100523.69;;;19.26;89.13
16595;BME280;8410;52.532;13.336;2023-07-31T03:04:53;100522.88;;;18.54;90.53
16595;BME280;8410;52.532;13.336;2023-07-31T03:07:22;100527.84;;;17.41;98.60
16595;BME280;8410;52.532;13.336;2023-07-31T03:09:49;100517.97;;;18.40;95.75
16595;BME280;8410;52.532;13.336;2023-07-31T03:12:17;100515.59;;;18.66;91.95
16595;BME280;8410;52.532;13.336;2023-07-31T03:14:45;100513.72;;;19.07;91.20
16595;BME280;8410;52.532;13.336;2023-07-31T03:17:13;100516.50;;;19.34;88.67
16595;BME280;8410;52.532;13.336;2023-07-31T03:19:40;100508.16;;;19.52;88.32
16595;BME280;8410;52.532;13.336;2023-07-31T03:22:08;100508.38;;;19.45;86.79
16595;BME280;8410;52.532;13.336;2023-07-31T03:24:37;100503.91;;;19.48;87.20
16595;BME280;8410;52.532;13.336;2023-07-31T03:27:05;100503.25;;;19.40;88.06
16595;BME280;8410;52.532;13.336;2023-07-31T03:29:32;100498.72;;;19.15;88.10
16595;BME280;8410;52.532;13.336;2023-07-31T03:32:00;100499.53;;;19.17;89.44
16595;BME280;8410;52.532;13.336;2023-07-31T03:34:27;100493.69;;;19.41;88.84
16595;BME280;8410;52.532;13.336;2023-07-31T03:36:55;100498.69;;;19.48;87.60
16595;BME280;8410;52.532;13.336;2023-07-31T03:39:22;100491.03;;;19.42;87.87
16595;BME280;8410;52.532;13.336;2023-07-31T03:41:51;100501.25;;;19.18;88.25
16595;BME280;8410;52.532;13.336;2023-07-31T03:44:19;100493.81;;;19.36;89.05
16595;BME280;8410;52.532;13.336;2023-07-31T03:46:46;100499.66;;;18.43;90.23
16595;BME280;8410;52.532;13.336;2023-07-31T03:49:14;100488.09;;;18.90;89.99
16595;BME280;8410;52.532;13.336;2023-07-31T03:51:41;100481.72;;;18.66;92.55
16595;BME280;8410;52.532;13.336;2023-07-31T03:54:09;100484.13;;;19.08;88.84
16595;BME280;8410;52.532;13.336;2023-07-31T03:56:36;100487.72;;;19.04;88.94
16595;BME280;8410;52.532;13.336;2023-07-31T03:59:07;100488.41;;;18.78;89.99
16595;BME280;8410;52.532;13.336;2023-07-31T04:01:34;100483.75;;;18.55;91.42
16595;BME280;8410;52.532;13.336;2023-07-31T04:04:02;100483.88;;;18.49;93.54
16595;BME280;8410;52.532;13.336;2023-07-31T04:06:30;100484.88;;;18.06;94.12
16595;BME280;8410;52.532;13.336;2023-07-31T04:08:57;100479.97;;;19.01;90.54
16595;BME280;8410;52.532;13.336;2023-07-31T04:11:25;100475.63;;;19.00;89.01
16595;BME280;8410;52.532;13.336;2023-07-31T04:13:52;100463.66;;;19.26;89.81
16595;BME280;8410;52.532;13.336;2023-07-31T04:16:21;100470.38;;;19.03;87.68
16595;BME280;8410;52.532;13.336;2023-07-31T04:18:49;100468.75;;;19.30;88.62
16595;BME280;8410;52.532;13.336;2023-07-31T04:21:16;100463.34;;;18.37;91.41
16595;BME280;8410;52.532;13.336;2023-07-31T04:23:45;100457.56;;;18.94;89.89
16595;BME280;8410;52.532;13.336;2023-07-31T04:26:13;100456.59;;;19.29;87.04
16595;BME280;8410;52.532;13.336;2023-07-31T04:28:40;100450.78;;;19.20;87.19
16595;BME280;8410;52.532;13.336;2023-07-31T04:31:08;100457.53;;;18.95;87.81
16595;BME280;8410;52.532;13.336;2023-07-31T04:33:37;100460.34;;;19.50;86.37
16595;BME280;8410;52.532;13.336;2023-07-31T04:36:04;100459.41;;;18.89;88.50
16595;BME280;8410;52.532;13.336;2023-07-31T04:38:32;100454.13;;;19.25;86.39
16595;BME280;8410;52.532;13.336;2023-07-31T04:40:59;100451.53;;;19.23;88.26
16595;BME280;8410;52.532;13.336;2023-07-31T04:43:27;100450.19;;;19.08;87.83
16595;BME280;8410;52.532;13.336;2023-07-31T04:45:54;100439.25;;;19.56;85.98
16595;BME280;8410;52.532;13.336;2023-07-31T04:48:22;100451.09;;;19.70;85.31
16595;BME280;8410;52.532;13.336;2023-07-31T04:50:51;100442.81;;;19.54;86.01
16595;BME280;8410;52.532;13.336;2023-07-31T04:53:18;100446.88;;;19.34;86.27
16595;BME280;8410;52.532;13.336;2023-07-31T04:55:46;100452.94;;;19.35;86.78
16595;BME280;8410;52.532;13.336;2023-07-31T04:58:13;100447.75;;;19.65;85.77
16595;BME280;8410;52.532;13.336;2023-07-31T05:00:41;100449.13;;;19.47;85.95
16595;BME280;8410;52.532;13.336;2023-07-31T05:03:08;100459.16;;;19.62;86.79
16595;BME280;8410;52.532;13.336;2023-07-31T05:05:37;100454.59;;;19.37;86.01
16595;BME280;8410;52.532;13.336;2023-07-31T05:08:06;100454.63;;;19.69;87.43
16595;BME280;8410;52.532;13.336;2023-07-31T05:10:33;100443.50;;;19.60;86.06
16595;BME280;8410;52.532;13.336;2023-07-31T05:13:01;100444.47;;;19.88;85.42
16595;BME280;8410;52.532;13.336;2023-07-31T05:15:29;100445.69;;;19.76;85.68
16595;BME280;8410;52.532;13.336;2023-07-31T05:17:56;100446.84;;;19.95;85.91
16595;BME280;8410;52.532;13.336;2023-07-31T05:20:24;100448.81;;;19.57;86.48
16595;BME280;8410;52.532;13.336;2023-07-31T05:22:51;100449.13;;;19.15;88.66
16595;BME280;8410;52.532;13.336;2023-07-31T05:25:20;100447.28;;;19.50;88.44
16595;BME280;8410;52.532;13.336;2023-07-31T05:27:48;100446.94;;;19.92;85.94
16595;BME280;8410;52.532;13.336;2023-07-31T05:30:15;100441.50;;;19.98;85.72
16595;BME280;8410;52.532;13.336;2023-07-31T05:32:43;100436.59;;;19.89;87.06
16595;BME280;8410;52.532;13.336;2023-07-31T05:35:10;100434.03;;;19.56;87.33
16595;BME280;8410;52.532;13.336;2023-07-31T05:37:38;100441.19;;;19.51;86.89
16595;BME280;8410;52.532;13.336;2023-07-31T05:40:06;100428.88;;;19.85;87.55
16595;BME280;8410;52.532;13.336;2023-07-31T05:42:35;100427.63;;;20.24;84.59
16595;BME280;8410;52.532;13.336;2023-07-31T05:45:05;100425.66;;;19.47;87.53
16595;BME280;8410;52.532;13.336;2023-07-31T05:47:33;100424.41;;;19.29;89.04
16595;BME280;8410;52.532;13.336;2023-07-31T05:50:01;100426.19;;;19.58;86.61
16595;BME280;8410;52.532;13.336;2023-07-31T05:52:28;100423.34;;;19.36;87.17
16595;BME280;8410;52.532;13.336;2023-07-31T05:54:56;100426.47;;;19.17;90.69
16595;BME280;8410;52.532;13.336;2023-07-31T05:57:23;100416.69;;;19.55;87.85
16595;BME280;8410;52.532;13.336;2023-07-31T05:59:52;100421.19;;;19.80;88.22
16595;BME280;8410;52.532;13.336;2023-07-31T06:02:20;100421.69;;;19.61;86.46
16595;BME280;8410;52.532;13.336;2023-07-31T06:04:48;100425.00;;;19.98;85.04
16595;BME280;8410;52.532;13.336;2023-07-31T06:07:15;100418.72;;;20.30;85.03
16595;BME280;8410;52.532;13.336;2023-07-31T06:09:43;100418.03;;;20.50;84.23
16595;BME280;8410;52.532;13.336;2023-07-31T06:12:10;100413.00;;;20.45;84.42
16595;BME280;8410;52.532;13.336;2023-07-31T06:14:39;100418.38;;;19.27;87.81
16595;BME280;8410;52.532;13.336;2023-07-31T06:17:07;100414.50;;;19.99;87.35
16595;BME280;8410;52.532;13.336;2023-07-31T06:19:35;100422.34;;;19.99;86.94
16595;BME280;8410;52.532;13.336;2023-07-31T06:22:03;100414.69;;;20.20;87.21
16595;BME280;8410;52.532;13.336;2023-07-31T06:24:30;100416.78;;;20.10;86.53
16595;BME280;8410;52.532;13.336;2023-07-31T06:26:58;100417.03;;;20.29;85.11
16595;BME280;8410;52.532;13.336;2023-07-31T06:29:25;100422.34;;;18.78;94.21
16595;BME280;8410;52.532;13.336;2023-07-31T06:31:53;100411.34;;;20.16;89.40
16595;BME280;8410;52.532;13.336;2023-07-31T06:34:21;100404.44;;;20.67;86.05
16595;BME280;8410;52.532;13.336;2023-07-31T06:36:49;100413.41;;;20.60;86.24
16595;BME280;8410;52.532;13.336;2023-07-31T06:39:16;100408.38;;;21.04;85.00
16595;BME280;8410;52.532;13.336;2023-07-31T06:41:44;100404.50;;;20.90;82.49
16595;BME280;8410;52.532;13.336;2023-07-31T06:44:12;100411.38;;;20.93;84.44
16595;BME280;8410;52.532;13.336;2023-07-31T06:46:39;100400.31;;;21.33;83.56
16595;BME280;8410;52.532;13.336;2023-07-31T06:49:07;100404.78;;;21.30;83.48
16595;BME280;8410;52.532;13.336;2023-07-31T06:51:36;100407.31;;;20.84;83.84
16595;BME280;8410;52.532;13.336;2023-07-31T06:54:04;100409.56;;;20.43;87.85
16595;BME280;8410;52.532;13.336;2023-07-31T06:56:32;100405.66;;;20.82;85.45
16595;BME280;8410;52.532;13.336;2023-07-31T06:59:00;100405.72;;;20.80;85.64
16595;BME280;8410;52.532;13.336;2023-07-31T07:01:27;100405.91;;;20.74;85.20
16595;BME280;8410;52.532;13.336;2023-07-31T07:03:55;100396.41;;;20.97;86.33
16595;BME280;8410;52.532;13.336;2023-07-31T07:06:23;100396.94;;;21.06;85.05
16595;BME280;8410;52.532;13.336;2023-07-31T07:08:52;100396.84;;;20.84;84.28
16595;BME280;8410;52.532;13.336;2023-07-31T07:11:19;100409.63;;;20.93;85.24
16595;BME280;8410;52.532;13.336;2023-07-31T07:13:47;100407.91;;;20.67;85.77
16595;BME280;8410;52.532;13.336;2023-07-31T07:16:14;100404.38;;;20.68;85.23
16595;BME280;8410;52.532;13.336;2023-07-31T07:18:42;100405.84;;;20.77;84.99
16595;BME280;8410;52.532;13.336;2023-07-31T07:21:28;100411.47;;;21.15;84.30
16595;BME280;8410;52.532;13.336;2023-07-31T07:23:56;100406.88;;;20.97;84.95
16595;BME280;8410;52.532;13.336;2023-07-31T07:26:24;100409.00;;;21.10;84.55
16595;BME280;8410;52.532;13.336;2023-07-31T07:28:52;100403.13;;;21.27;83.19
16595;BME280;8410;52.532;13.336;2023-07-31T07:31:19;100409.97;;;21.31;83.81
16595;BME280;8410;52.532;13.336;2023-07-31T07:33:46;100407.88;;;20.69;86.51
16595;BME280;8410;52.532;13.336;2023-07-31T07:36:14;100403.13;;;21.27;83.38
16595;BME280;8410;52.532;13.336;2023-07-31T07:38:41;100401.47;;;21.25;84.04
16595;BME280;8410;52.532;13.336;2023-07-31T07:41:10;100395.50;;;21.21;83.42
16595;BME280;8410;52.532;13.336;2023-07-31T07:43:38;100396.94;;;21.06;84.25
16595;BME280;8410;52.532;13.336;2023-07-31T07:46:05;100396.75;;;21.11;84.78
16595;BME280;8410;52.532;13.336;2023-07-31T07:48:33;100395.56;;;20.96;82.88
16595;BME280;8410;52.532;13.336;2023-07-31T07:51:00;100405.97;;;20.21;87.44
16595;BME280;8410;52.532;13.336;2023-07-31T07:53:28;100384.56;;;20.86;86.54
16595;BME280;8410;52.532;13.336;2023-07-31T07:55:55;100385.72;;;21.03;84.96
16595;BME280;8410;52.532;13.336;2023-07-31T07:58:24;100391.63;;;21.08;85.27
16595;BME280;8410;52.532;13.336;2023-07-31T08:00:52;100391.53;;;21.11;85.25
16595;BME280;8410;52.532;13.336;2023-07-31T08:03:19;100391.00;;;20.51;88.13
16595;BME280;8410;52.532;13.336;2023-07-31T08:05:47;100384.31;;;20.69;86.75
16595;BME280;8410;52.532;13.336;2023-07-31T08:08:15;100387.91;;;20.66;88.27
16595;BME280;8410;52.532;13.336;2023-07-31T08:10:43;100389.34;;;20.75;86.36
16595;BME280;8410;52.532;13.336;2023-07-31T08:13:11;100386.13;;;21.15;85.68
16595;BME280;8410;52.532;13.336;2023-07-31T08:15:42;100372.59;;;21.04;85.40
16595;BME280;8410;52.532;13.336;2023-07-31T08:18:09;100367.16;;;20.85;86.53
16595;BME280;8410;52.532;13.336;2023-07-31T08:20:38;100375.22;;;20.79;86.78
16595;BME280;8410;52.532;13.336;2023-07-31T08:23:06;100372.63;;;21.03;86.68
16595;BME280;8410;52.532;13.336;2023-07-31T08:25:34;100378.09;;;20.97;85.87
16595;BME280;8410;52.532;13.336;2023-07-31T08:28:02;100376.56;;;20.91;85.89
16595;BME280;8410;52.532;13.336;2023-07-31T08:30:29;100373.81;;;20.94;86.34
16595;BME280;8410;52.532;13.336;2023-07-31T08:32:59;100375.47;;;20.97;86.55
16595;BME280;8410;52.532;13.336;2023-07-31T08:35:27;100368.41;;;20.75;87.00
16595;BME280;8410;52.532;13.336;2023-07-31T08:37:55;100370.25;;;20.97;87.87
16595;BME280;8410;52.532;13.336;2023-07-31T08:40:23;100368.72;;;21.14;86.34
16595;BME280;8410;52.532;13.336;2023-07-31T08:42:53;100370.38;;;21.41;85.70
16595;BME280;8410;52.532;13.336;2023-07-31T08:45:22;100375.88;;;21.56;84.77
16595;BME280;8410;52.532;13.336;2023-07-31T08:47:51;100373.66;;;20.99;85.02
16595;BME280;8410;52.532;13.336;2023-07-31T08:50:21;100363.78;;;21.30;85.55
16595;BME280;8410;52.532;13.336;2023-07-31T08:52:49;100377.88;;;21.50;85.04
16595;BME280;8410;52.532;13.336;2023-07-31T08:55:17;100371.88;;;20.24;89.91
16595;BME280;8410;52.532;13.336;2023-07-31T08:57:51;100365.34;;;20.87;87.54
16595;BME280;8410;52.532;13.336;2023-07-31T09:00:20;100366.75;;;20.47;88.86
16595;BME280;8410;52.532;13.336;2023-07-31T09:02:54;100365.25;;;20.90;88.52
16595;BME280;8410;52.532;13.336;2023-07-31T09:05:26;100362.22;;;21.48;85.29
16595;BME280;8410;52.532;13.336;2023-07-31T09:07:55;100369.44;;;21.18;87.40
16595;BME280;8410;52.532;13.336;2023-07-31T09:10:23;100360.19;;;21.78;84.45
16595;BME280;8410;52.532;13.336;2023-07-31T09:12:52;100360.47;;;21.93;83.71
16595;BME280;8410;52.532;13.336;2023-07-31T09:15:20;100366.56;;;21.71;83.66
16595;BME280;8410;52.532;13.336;2023-07-31T09:18:04;100365.13;;;21.17;87.46
16595;BME280;8410;52.532;13.336;2023-07-31T09:20:34;100361.75;;;21.39;83.61
16595;BME280;8410;52.532;13.336;2023-07-31T09:23:05;100363.81;;;21.29;87.06
16595;BME280;8410;52.532;13.336;2023-07-31T09:25:35;100361.03;;;21.10;86.25
16595;BME280;8410;52.532;13.336;2023-07-31T09:28:04;100364.38;;;21.37;86.45
16595;BME280;8410;52.532;13.336;2023-07-31T09:30:45;100366.50;;;21.04;86.10
16595;BME280;8410;52.532;13.336;2023-07-31T09:33:12;100368.19;;;21.28;86.60
16595;BME280;8410;52.532;13.336;2023-07-31T09:35:41;100365.59;;;21.28;87.08
16595;BME280;8410;52.532;13.336;2023-07-31T09:38:11;100361.59;;;20.95;88.27
16595;BME280;8410;52.532;13.336;2023-07-31T09:40:40;100368.19;;;21.05;88.45
16595;BME280;8410;52.532;13.336;2023-07-31T09:43:09;100356.69;;;21.09;88.00
16595;BME280;8410;52.532;13.336;2023-07-31T09:45:38;100359.88;;;21.41;86.91
16595;BME280;8410;52.532;13.336;2023-07-31T09:48:07;100362.84;;;21.08;87.77
16595;BME280;8410;52.532;13.336;2023-07-31T09:50:37;100358.22;;;21.62;86.60
16595;BME280;8410;52.532;13.336;2023-07-31T09:53:07;100352.91;;;21.63;85.99
16595;BME280;8410;52.532;13.336;2023-07-31T09:55:36;100350.38;;;21.38;86.41
16595;BME280;8410;52.532;13.336;2023-07-31T09:58:05;100347.44;;;21.69;85.82
16595;BME280;8410;52.532;13.336;2023-07-31T10:00:34;100349.19;;;21.69;85.06
16595;BME280;8410;52.532;13.336;2023-07-31T10:03:04;100346.06;;;21.13;87.86
16595;BME280;8410;52.532;13.336;2023-07-31T10:05:34;100345.56;;;21.04;87.31
16595;BME280;8410;52.532;13.336;2023-07-31T10:08:03;100341.81;;;21.56;87.08
16595;BME280;8410;52.532;13.336;2023-07-31T10:10:32;100345.09;;;21.84;83.86
16595;BME280;8410;52.532;13.336;2023-07-31T10:13:03;100341.06;;;21.07;84.78
16595;BME280;8410;52.532;13.336;2023-07-31T10:15:32;100337.78;;;21.24;87.36
16595;BME280;8410;52.532;13.336;2023-07-31T10:18:01;100335.47;;;21.17;85.89
16595;BME280;8410;52.532;13.336;2023-07-31T10:20:29;100331.44;;;21.31;85.81
16595;BME280;8410;52.532;13.336;2023-07-31T10:22:57;100340.53;;;21.21;86.56
16595;BME280;8410;52.532;13.336;2023-07-31T10:25:26;100347.81;;;21.13;87.89
16595;BME280;8410;52.532;13.336;2023-07-31T10:27:57;100333.13;;;21.32;86.85
16595;BME280;8410;52.532;13.336;2023-07-31T10:30:27;100330.78;;;21.70;85.99
16595;BME280;8410;52.532;13.336;2023-07-31T10:32:55;100320.94;;;21.55;86.38
16595;BME280;8410;52.532;13.336;2023-07-31T10:35:24;100319.03;;;21.80;85.56
16595;BME280;8410;52.532;13.336;2023-07-31T10:37:52;100326.19;;;21.55;83.89
16595;BME280;8410;52.532;13.336;2023-07-31T10:40:24;100323.09;;;21.88;84.91
16595;BME280;8410;52.532;13.336;2023-07-31T10:42:54;100315.66;;;21.99;84.43
16595;BME280;8410;52.532;13.336;2023-07-31T10:45:32;100307.84;;;22.19;83.71
16595;BME280;8410;52.532;13.336;2023-07-31T10:48:04;100303.59;;;21.95;84.87
16595;BME280;8410;52.532;13.336;2023-07-31T10:50:33;100302.28;;;22.66;82.23
16595;BME280;8410;52.532;13.336;2023-07-31T10:53:04;100302.56;;;22.79;82.40
16595;BME280;8410;52.532;13.336;2023-07-31T10:55:38;100292.19;;;22.57;81.77
16595;BME280;8410;52.532;13.336;2023-07-31T10:58:10;100283.50;;;22.76;81.51
16595;BME280;8410;52.532;13.336;2023-07-31T11:00:39;100279.91;;;23.16;80.42
16595;BME280;8410;52.532;13.336;2023-07-31T11:03:08;100278.84;;;23.01;80.43
16595;BME280;8410;52.532;13.336;2023-07-31T11:05:53;100276.09;;;23.04;80.20
16595;BME280;8410;52.532;13.336;2023-07-31T11:08:22;100269.53;;;22.94;79.07
16595;BME280;8410;52.532;13.336;2023-07-31T11:10:51;100278.78;;;21.61;82.67
16595;BME280;8410;52.532;13.336;2023-07-31T11:13:33;100285.84;;;22.82;79.48
16595;BME280;8410;52.532;13.336;2023-07-31T11:16:01;100275.78;;;22.92;77.06
16595;BME280;8410;52.532;13.336;2023-07-31T11:18:29;100277.75;;;22.86;78.81
16595;BME280;8410;52.532;13.336;2023-07-31T11:20:56;100269.81;;;22.30;79.85
16595;BME280;8410;52.532;13.336;2023-07-31T11:23:24;100275.78;;;22.33;80.29
16595;BME280;8410;52.532;13.336;2023-07-31T11:25:51;100272.16;;;22.56;78.37
16595;BME280;8410;52.532;13.336;2023-07-31T11:28:19;100278.16;;;22.58;77.91
16595;BME280;8410;52.532;13.336;2023-07-31T11:30:48;100277.19;;;22.80;77.69
16595;BME280;8410;52.532;13.336;2023-07-31T11:33:15;100262.34;;;22.20;78.56
16595;BME280;8410;52.532;13.336;2023-07-31T11:35:45;100269.63;;;21.92;78.09
16595;BME280;8410;52.532;13.336;2023-07-31T11:38:21;100266.91;;;21.95;79.00
16595;BME280;8410;52.532;13.336;2023-07-31T11:40:50;100272.63;;;21.62;78.47
16595;BME280;8410;52.532;13.336;2023-07-31T11:43:19;100276.19;;;21.82;78.35
16595;BME280;8410;52.532;13.336;2023-07-31T11:45:51;100273.97;;;21.93;78.70
16595;BME280;8410;52.532;13.336;2023-07-31T11:48:20;100274.13;;;22.31;76.39
16595;BME280;8410;52.532;13.336;2023-07-31T11:50:49;100271.25;;;22.16;76.34
16595;BME280;8410;52.532;13.336;2023-07-31T11:53:20;100267.69;;;22.17;76.54
16595;BME280;8410;52.532;13.336;2023-07-31T11:55:49;100262.59;;;22.35;75.44
16595;BME280;8410;52.532;13.336;2023-07-31T11:58:17;100264.16;;;22.39;76.09
16595;BME280;8410;52.532;13.336;2023-07-31T12:00:46;100263.22;;;22.40;75.83
16595;BME280;8410;52.532;13.336;2023-07-31T12:03:15;100265.25;;;22.54;75.27
16595;BME280;8410;52.532;13.336;2023-07-31T12:05:43;100258.13;;;21.96;76.15
16595;BME280;8410;52.532;13.336;2023-07-31T12:08:11;100257.22;;;22.38;75.81
16595;BME280;8410;52.532;13.336;2023-07-31T12:10:39;100261.16;;;22.48;76.02
16595;BME280;8410;52.532;13.336;2023-07-31T12:13:09;100256.94;;;22.44;75.02
16595;BME280;8410;52.532;13.336;2023-07-31T12:15:41;100249.88;;;22.26;76.00
16595;BME280;8410;52.532;13.336;2023-07-31T12:18:11;100239.91;;;23.11;74.10
16595;BME280;8410;52.532;13.336;2023-07-31T12:20:44;100241.66;;;23.47;72.69
16595;BME280;8410;52.532;13.336;2023-07-31T12:23:14;100244.28;;;23.47;72.96
16595;BME280;8410;52.532;13.336;2023-07-31T12:25:42;100254.84;;;22.90;74.47
16595;BME280;8410;52.532;13.336;2023-07-31T12:28:10;100232.91;;;23.29;74.09
16595;BME280;8410;52.532;13.336;2023-07-31T12:30:40;100245.91;;;23.32;73.40
16595;BME280;8410;52.532;13.336;2023-07-31T12:33:13;100232.28;;;23.41;72.10
16595;BME280;8410;52.532;13.336;2023-07-31T12:35:43;100234.34;;;22.60;73.88
16595;BME280;8410;52.532;13.336;2023-07-31T12:38:13;100230.22;;;23.11;72.21
16595;BME280;8410;52.532;13.336;2023-07-31T12:40:41;100222.50;;;23.08;72.83
16595;BME280;8410;52.532;13.336;2023-07-31T12:43:09;100211.66;;;22.97;72.87
16595;BME280;8410;52.532;13.336;2023-07-31T12:45:36;100209.69;;;23.56;71.33
16595;BME280;8410;52.532;13.336;2023-07-31T12:48:04;100212.63;;;23.14;71.73
16595;BME280;8410;52.532;13.336;2023-07-31T12:50:32;100199.34;;;23.17;72.82
16595;BME280;8410;52.532;13.336;2023-07-31T12:52:59;100215.94;;;23.00;72.73
16595;BME280;8410;52.532;13.336;2023-07-31T12:55:28;100198.44;;;23.18;72.13
16595;BME280;8410;52.532;13.336;2023-07-31T12:57:56;100200.78;;;23.24;72.29